createdAt,value
2019-02-18T00:00:07.096Z,1.65
2019-02-18T00:01:06.816Z,1.77
2019-02-18T00:02:06.837Z,1.77
2019-02-18T00:03:07.278Z,1.92
2019-02-18T00:04:06.758Z,1.82
2019-02-18T00:05:07.032Z,1.79
2019-02-18T00:06:06.795Z,1.92
2019-02-18T00:07:14.144Z,1.86
2019-02-18T00:08:07.756Z,1.89
2019-02-18T00:09:06.691Z,1.89
2019-02-18T00:10:06.889Z,2.04
2019-02-18T00:11:06.695Z,1.90
2019-02-18T00:12:06.696Z,2.01
2019-02-18T00:13:06.690Z,2.04
2019-02-18T00:14:06.697Z,1.90
2019-02-18T00:15:06.690Z,1.98
2019-02-18T00:16:06.613Z,2.05
2019-02-18T00:17:06.630Z,2.07
2019-02-18T00:18:06.614Z,2.04
2019-02-18T00:19:06.662Z,2.08
2019-02-18T00:20:06.562Z,2.18
2019-02-18T00:21:06.567Z,2.27
2019-02-18T00:22:06.533Z,2.33
2019-02-18T00:23:06.549Z,2.37
2019-02-18T00:24:06.586Z,2.43
2019-02-18T00:25:06.511Z,2.41
2019-02-18T00:26:06.518Z,2.58
2019-02-18T00:27:06.487Z,2.50
2019-02-18T00:28:06.472Z,2.50
2019-02-18T00:29:06.462Z,2.47
2019-02-18T00:30:06.488Z,2.45
2019-02-18T00:31:06.434Z,2.53
2019-02-18T00:32:06.528Z,2.50
2019-02-18T00:33:06.411Z,2.50
2019-02-18T00:34:06.406Z,2.59
2019-02-18T00:35:06.405Z,2.61
2019-02-18T00:36:06.395Z,2.59
2019-02-18T00:37:06.430Z,2.56
2019-02-18T00:38:06.370Z,2.59
2019-02-18T00:39:06.351Z,2.56
2019-02-18T00:40:06.346Z,2.55
2019-02-18T00:41:06.357Z,2.58
2019-02-18T00:42:06.348Z,2.63
2019-02-18T00:43:06.311Z,2.61
2019-02-18T00:44:06.346Z,2.55
2019-02-18T00:45:06.282Z,2.55
2019-02-18T00:46:06.275Z,2.50
2019-02-18T00:47:06.293Z,2.50
2019-02-18T00:48:06.256Z,2.45
2019-02-18T00:49:06.246Z,2.38
2019-02-18T00:50:06.248Z,2.40
2019-02-18T00:51:06.227Z,2.40
2019-02-18T00:52:06.240Z,2.43
2019-02-18T00:53:06.212Z,2.38
2019-02-18T00:54:06.192Z,2.47
2019-02-18T00:55:06.252Z,2.37
2019-02-18T00:56:06.247Z,2.40
2019-02-18T00:57:06.373Z,2.41
2019-02-18T00:58:06.149Z,2.30
2019-02-18T00:59:06.157Z,2.22
2019-02-18T01:00:06.163Z,2.37
2019-02-18T01:01:06.117Z,2.23
2019-02-18T01:02:06.132Z,2.12
2019-02-18T01:03:06.119Z,2.12
2019-02-18T01:04:06.093Z,2.09
2019-02-18T01:05:06.081Z,2.04
2019-02-18T01:06:06.061Z,2.07
2019-02-18T01:07:06.108Z,2.05
2019-02-18T01:08:06.071Z,2.02
2019-02-18T01:09:06.039Z,2.01
2019-02-18T01:10:06.028Z,2.04
2019-02-18T01:11:06.027Z,2.01
2019-02-18T01:12:06.002Z,1.92
2019-02-18T01:13:06.034Z,1.93
2019-02-18T01:14:05.983Z,1.98
2019-02-18T01:15:05.983Z,1.95
2019-02-18T01:16:05.959Z,1.90
2019-02-18T01:17:05.996Z,1.98
2019-02-18T01:18:05.963Z,1.95
2019-02-18T01:19:05.927Z,1.88
2019-02-18T01:20:05.936Z,1.85
2019-02-18T01:21:05.908Z,1.86
2019-02-18T01:22:05.901Z,1.86
2019-02-18T01:23:05.930Z,1.89
2019-02-18T01:24:05.875Z,1.85
2019-02-18T01:25:05.883Z,1.85
2019-02-18T01:26:05.868Z,1.88
2019-02-18T01:27:05.870Z,1.82
2019-02-18T01:28:05.867Z,1.85
2019-02-18T01:29:05.830Z,1.67
2019-02-18T01:30:05.814Z,1.81
2019-02-18T01:31:05.820Z,1.83
2019-02-18T01:32:05.797Z,1.85
2019-02-18T01:33:05.803Z,1.82
2019-02-18T01:34:05.805Z,1.75
2019-02-18T01:35:05.774Z,1.74
2019-02-18T01:36:05.778Z,1.64
2019-02-18T01:37:05.754Z,1.67
2019-02-18T01:38:05.747Z,1.67
2019-02-18T01:39:05.748Z,1.56
2019-02-18T01:40:05.712Z,1.53
2019-02-18T01:41:05.696Z,1.52
2019-02-18T01:42:05.699Z,1.57
2019-02-18T01:43:05.690Z,1.53
2019-02-18T01:44:05.728Z,1.47
2019-02-18T01:45:05.668Z,1.57
2019-02-18T01:46:05.678Z,1.65
2019-02-18T01:47:05.632Z,1.54
2019-02-18T01:48:05.624Z,1.50
2019-02-18T01:49:05.638Z,1.44
2019-02-18T01:50:05.631Z,1.39
2019-02-18T01:51:05.603Z,1.46
2019-02-18T01:52:05.589Z,1.42
2019-02-18T01:53:05.580Z,1.42
2019-02-18T01:54:05.593Z,1.38
2019-02-18T01:55:05.578Z,1.46
2019-02-18T01:56:05.581Z,1.39
2019-02-18T01:57:05.573Z,1.47
2019-02-18T01:58:05.529Z,1.52
2019-02-18T01:59:05.576Z,1.64
2019-02-18T02:00:05.504Z,1.75
2019-02-18T02:01:05.495Z,1.77
2019-02-18T02:02:05.478Z,1.92
2019-02-18T02:03:05.466Z,1.81
2019-02-18T02:04:05.502Z,1.86
2019-02-18T02:05:05.470Z,1.86
2019-02-18T02:06:05.460Z,1.86
2019-02-18T02:07:05.428Z,1.93
2019-02-18T02:08:05.418Z,1.86
2019-02-18T02:09:05.461Z,1.85
2019-02-18T02:10:05.406Z,2.01
2019-02-18T02:11:05.395Z,2.05
2019-02-18T02:12:05.388Z,2.11
2019-02-18T02:13:05.361Z,2.07
2019-02-18T02:14:05.390Z,2.08
2019-02-18T02:15:05.362Z,2.08
2019-02-18T02:16:05.364Z,2.07
2019-02-18T02:17:05.383Z,2.19
2019-02-18T02:18:05.308Z,2.19
2019-02-18T02:19:05.352Z,2.30
2019-02-18T02:20:05.320Z,2.33
2019-02-18T02:21:05.280Z,2.43
2019-02-18T02:22:05.332Z,2.50
2019-02-18T02:23:05.273Z,2.50
2019-02-18T02:24:05.261Z,2.56
2019-02-18T02:25:05.265Z,2.56
2019-02-18T02:26:05.292Z,2.59
2019-02-18T02:27:05.221Z,2.76
2019-02-18T02:28:05.202Z,2.65
2019-02-18T02:29:05.262Z,2.69
2019-02-18T02:30:05.183Z,2.68
2019-02-18T02:31:05.196Z,2.76
2019-02-18T02:32:05.238Z,2.63
2019-02-18T02:33:05.209Z,2.71
2019-02-18T02:34:05.141Z,2.77
2019-02-18T02:35:05.135Z,2.68
2019-02-18T02:36:05.176Z,2.79
2019-02-18T02:37:05.153Z,2.73
2019-02-18T02:38:08.050Z,2.68
2019-02-18T02:39:05.101Z,2.62
2019-02-18T02:40:05.091Z,2.69
2019-02-18T02:41:05.108Z,2.63
2019-02-18T02:42:05.274Z,2.63
2019-02-18T02:43:05.049Z,2.62
2019-02-18T02:44:05.079Z,2.61
2019-02-18T02:45:05.028Z,2.56
2019-02-18T02:46:05.035Z,2.65
2019-02-18T02:47:05.041Z,2.73
2019-02-18T02:48:04.992Z,2.66
2019-02-18T02:49:04.989Z,2.65
2019-02-18T02:50:04.981Z,2.61
2019-02-18T02:51:04.998Z,2.69
2019-02-18T02:52:04.999Z,2.59
2019-02-18T02:53:04.954Z,2.63
2019-02-18T02:54:04.927Z,2.59
2019-02-18T02:55:04.939Z,2.65
2019-02-18T02:56:04.991Z,2.62
2019-02-18T02:57:04.944Z,2.59
2019-02-18T02:58:04.900Z,2.62
2019-02-18T02:59:04.935Z,2.50
2019-02-18T03:00:04.864Z,2.50
2019-02-18T03:01:04.947Z,2.50
2019-02-18T03:02:04.882Z,2.37
2019-02-18T03:03:04.877Z,2.32
2019-02-18T03:04:04.827Z,2.37
2019-02-18T03:05:04.904Z,2.29
2019-02-18T03:06:04.852Z,2.37
2019-02-18T03:07:04.947Z,2.33
2019-02-18T03:08:04.781Z,2.29
2019-02-18T03:09:04.790Z,2.27
2019-02-18T03:10:04.763Z,2.30
2019-02-18T03:11:04.766Z,2.30
2019-02-18T03:12:04.772Z,2.29
2019-02-18T03:13:04.744Z,2.33
2019-02-18T03:14:04.739Z,2.36
2019-02-18T03:15:04.746Z,2.30
2019-02-18T03:16:04.713Z,2.30
2019-02-18T03:17:04.718Z,2.40
2019-02-18T03:18:04.685Z,2.37
2019-02-18T03:19:04.677Z,2.38
2019-02-18T03:20:04.664Z,2.43
2019-02-18T03:21:04.656Z,2.40
2019-02-18T03:22:04.787Z,2.33
2019-02-18T03:23:04.633Z,2.44
2019-02-18T03:24:04.635Z,2.38
2019-02-18T03:25:04.607Z,2.41
2019-02-18T03:26:04.611Z,2.44
2019-02-18T03:27:04.633Z,2.36
2019-02-18T03:28:04.626Z,2.30
2019-02-18T03:29:04.564Z,2.32
2019-02-18T03:30:04.563Z,2.30
2019-02-18T03:31:04.549Z,2.18
2019-02-18T03:32:04.544Z,2.23
2019-02-18T03:33:04.572Z,2.26
2019-02-18T03:34:04.574Z,2.20
2019-02-18T03:35:04.516Z,2.23
2019-02-18T03:36:04.510Z,2.09
2019-02-18T03:37:04.489Z,2.11
2019-02-18T03:38:04.530Z,2.20
2019-02-18T03:39:04.487Z,2.19
2019-02-18T03:40:04.530Z,2.27
2019-02-18T03:41:04.436Z,2.26
2019-02-18T03:42:04.515Z,2.23
2019-02-18T03:43:04.437Z,2.27
2019-02-18T03:44:04.452Z,2.25
2019-02-18T03:45:04.400Z,2.25
2019-02-18T03:46:04.408Z,2.26
2019-02-18T03:47:04.381Z,2.20
2019-02-18T03:48:04.379Z,2.25
2019-02-18T03:49:04.390Z,2.26
2019-02-18T03:50:04.363Z,2.25
2019-02-18T03:51:04.358Z,2.15
2019-02-18T03:52:04.324Z,2.22
2019-02-18T03:53:04.321Z,2.18
2019-02-18T03:54:04.369Z,2.25
2019-02-18T03:55:04.292Z,2.26
2019-02-18T03:56:04.281Z,2.26
2019-02-18T03:57:04.283Z,2.18
2019-02-18T03:58:04.279Z,2.29
2019-02-18T03:59:04.246Z,2.33
2019-02-18T04:00:04.280Z,2.33
2019-02-18T04:01:04.266Z,2.23
2019-02-18T04:02:04.243Z,2.32
2019-02-18T04:03:04.215Z,2.32
2019-02-18T04:04:04.255Z,2.30
2019-02-18T04:05:04.218Z,2.30
2019-02-18T04:06:04.240Z,2.30
2019-02-18T04:07:04.167Z,2.26
2019-02-18T04:08:04.167Z,2.25
2019-02-18T04:09:04.145Z,2.20
2019-02-18T04:10:04.161Z,2.07
2019-02-18T04:11:04.121Z,2.02
2019-02-18T04:12:04.143Z,1.98
2019-02-18T04:13:04.111Z,1.95
2019-02-18T04:14:04.163Z,2.05
2019-02-18T04:15:04.129Z,2.08
2019-02-18T04:16:04.087Z,2.02
2019-02-18T04:17:04.060Z,2.00
2019-02-18T04:18:04.050Z,1.92
2019-02-18T04:19:04.058Z,2.00
2019-02-18T04:20:04.058Z,1.98
2019-02-18T04:21:04.022Z,1.88
2019-02-18T04:22:04.029Z,1.86
2019-02-18T04:23:04.032Z,1.92
2019-02-18T04:24:04.006Z,1.81
2019-02-18T04:25:04.012Z,1.79
2019-02-18T04:26:03.986Z,1.81
2019-02-18T04:27:03.967Z,1.86
2019-02-18T04:28:03.987Z,1.81
2019-02-18T04:29:03.935Z,1.82
2019-02-18T04:30:03.927Z,1.85
2019-02-18T04:31:03.940Z,1.92
2019-02-18T04:32:03.950Z,1.88
2019-02-18T04:33:03.910Z,1.86
2019-02-18T04:34:03.922Z,1.98
2019-02-18T04:35:03.880Z,1.95
2019-02-18T04:36:03.981Z,2.01
2019-02-18T04:37:03.852Z,2.02
2019-02-18T04:38:03.923Z,1.85
2019-02-18T04:39:03.833Z,1.95
2019-02-18T04:40:03.825Z,1.88
2019-02-18T04:41:03.842Z,1.89
2019-02-18T04:42:03.798Z,1.86
2019-02-18T04:43:03.809Z,1.90
2019-02-18T04:44:03.783Z,1.83
2019-02-18T04:45:03.772Z,2.01
2019-02-18T04:46:03.776Z,1.89
2019-02-18T04:47:03.839Z,1.92
2019-02-18T04:48:03.736Z,1.85
2019-02-18T04:49:03.725Z,1.88
2019-02-18T04:50:03.789Z,1.85
2019-02-18T04:51:03.754Z,1.85
2019-02-18T04:52:03.741Z,1.86
2019-02-18T04:53:03.683Z,1.86
2019-02-18T04:54:03.672Z,1.86
2019-02-18T04:55:03.663Z,1.82
2019-02-18T04:56:03.661Z,1.86
2019-02-18T04:57:03.718Z,1.79
2019-02-18T04:58:06.168Z,1.79
2019-02-18T04:59:03.623Z,1.92
2019-02-18T05:00:03.620Z,1.77
2019-02-18T05:01:03.620Z,1.81
2019-02-18T05:02:03.597Z,1.85
2019-02-18T05:03:03.637Z,1.85
2019-02-18T05:04:03.607Z,1.79
2019-02-18T05:05:03.564Z,1.77
2019-02-18T05:06:03.568Z,1.79
2019-02-18T05:07:03.546Z,1.75
2019-02-18T05:08:03.567Z,1.82
2019-02-18T05:09:05.618Z,1.75
2019-02-18T05:10:03.553Z,1.81
2019-02-18T05:11:03.502Z,1.79
2019-02-18T05:12:03.554Z,1.63
2019-02-18T05:13:03.482Z,1.64
2019-02-18T05:14:03.510Z,1.74
2019-02-18T05:15:03.455Z,1.68
2019-02-18T05:16:03.458Z,1.65
2019-02-18T05:17:03.435Z,1.64
2019-02-18T05:18:03.453Z,1.71
2019-02-18T05:19:03.450Z,1.71
2019-02-18T05:20:03.431Z,1.65
2019-02-18T05:21:03.390Z,1.71
2019-02-18T05:22:03.386Z,1.74
2019-02-18T05:23:03.405Z,1.71
2019-02-18T05:24:03.374Z,1.67
2019-02-18T05:25:03.425Z,1.65
2019-02-18T05:26:03.338Z,1.63
2019-02-18T05:27:03.329Z,1.70
2019-02-18T05:28:03.316Z,1.68
2019-02-18T05:29:03.308Z,1.54
2019-02-18T05:30:03.354Z,1.61
2019-02-18T05:31:03.300Z,1.65
2019-02-18T05:32:03.273Z,1.63
2019-02-18T05:33:03.284Z,1.67
2019-02-18T05:34:03.257Z,1.67
2019-02-18T05:35:03.242Z,1.65
2019-02-18T05:36:03.273Z,1.63
2019-02-18T05:37:03.282Z,1.67
2019-02-18T05:38:03.215Z,1.64
2019-02-18T05:39:03.271Z,1.68
2019-02-18T05:40:03.195Z,1.71
2019-02-18T05:41:03.214Z,1.57
2019-02-18T05:42:03.202Z,1.64
2019-02-18T05:43:03.169Z,1.67
2019-02-18T05:44:03.165Z,1.67
2019-02-18T05:45:03.144Z,1.70
2019-02-18T05:46:03.135Z,1.68
2019-02-18T05:47:03.269Z,1.68
2019-02-18T05:48:03.110Z,1.71
2019-02-18T05:49:03.102Z,1.70
2019-02-18T05:50:03.098Z,1.71
2019-02-18T05:51:03.080Z,1.71
2019-02-18T05:52:03.109Z,1.75
2019-02-18T05:53:03.203Z,1.74
2019-02-18T05:54:03.052Z,1.68
2019-02-18T05:55:03.046Z,1.72
2019-02-18T05:56:03.112Z,1.77
2019-02-18T05:57:03.013Z,1.82
2019-02-18T05:58:03.044Z,1.79
2019-02-18T05:59:03.027Z,1.79
2019-02-18T06:00:03.043Z,1.75
2019-02-18T06:01:02.981Z,1.79
2019-02-18T06:02:02.958Z,1.83
2019-02-18T06:03:02.998Z,1.81
2019-02-18T06:04:02.938Z,1.82
2019-02-18T06:05:02.956Z,1.81
2019-02-18T06:06:02.944Z,1.85
2019-02-18T06:07:02.916Z,1.83
2019-02-18T06:08:02.951Z,1.92
2019-02-18T06:09:02.889Z,1.89
2019-02-18T06:10:02.880Z,1.83
2019-02-18T06:11:02.882Z,1.88
2019-02-18T06:12:02.856Z,1.88
2019-02-18T06:13:02.854Z,1.90
2019-02-18T06:14:02.863Z,1.90
2019-02-18T06:15:02.863Z,1.86
2019-02-18T06:16:02.879Z,1.90
2019-02-18T06:17:02.956Z,1.88
2019-02-18T06:18:02.790Z,1.83
2019-02-18T06:19:02.821Z,1.81
2019-02-18T06:20:02.782Z,1.72
2019-02-18T06:21:02.767Z,1.68
2019-02-18T06:22:02.775Z,1.68
2019-02-18T06:23:02.750Z,1.67
2019-02-18T06:24:02.751Z,1.68
2019-02-18T06:25:02.767Z,1.65
2019-02-18T06:26:02.776Z,1.71
2019-02-18T06:27:02.704Z,1.65
2019-02-18T06:28:04.844Z,1.65
2019-02-18T06:29:02.685Z,1.67
2019-02-18T06:30:02.729Z,1.67
2019-02-18T06:31:02.662Z,1.64
2019-02-18T06:32:02.642Z,1.67
2019-02-18T06:33:02.639Z,1.70
2019-02-18T06:34:02.669Z,1.64
2019-02-18T06:35:02.733Z,1.61
2019-02-18T06:36:02.621Z,1.67
2019-02-18T06:37:02.594Z,1.67
2019-02-18T06:38:02.608Z,1.64
2019-02-18T06:39:02.622Z,1.67
2019-02-18T06:40:02.562Z,1.67
2019-02-18T06:41:02.574Z,1.68
2019-02-18T06:42:02.546Z,1.68
2019-02-18T06:43:02.533Z,1.64
2019-02-18T06:44:02.535Z,1.65
2019-02-18T06:45:02.532Z,1.60
2019-02-18T06:46:02.527Z,1.63
2019-02-18T06:47:02.489Z,1.67
2019-02-18T06:48:02.480Z,1.68
2019-02-18T06:49:02.500Z,1.67
2019-02-18T06:50:02.526Z,1.68
2019-02-18T06:51:02.520Z,1.57
2019-02-18T06:52:02.435Z,1.64
2019-02-18T06:53:02.433Z,1.68
2019-02-18T06:54:02.433Z,1.68
2019-02-18T06:55:02.409Z,1.64
2019-02-18T06:56:02.500Z,1.65
2019-02-18T06:57:02.392Z,1.64
2019-02-18T06:58:02.380Z,1.68
2019-02-18T06:59:02.410Z,1.68
2019-02-18T07:00:02.396Z,1.68
2019-02-18T07:01:02.348Z,1.67
2019-02-18T07:02:02.369Z,1.71
2019-02-18T07:03:02.346Z,1.72
2019-02-18T07:04:02.328Z,1.68
2019-02-18T07:05:02.352Z,1.64
2019-02-18T07:06:02.294Z,1.67
2019-02-18T07:07:02.325Z,1.68
2019-02-18T07:08:02.282Z,1.68
2019-02-18T07:09:02.285Z,1.74
2019-02-18T07:10:02.248Z,1.79
2019-02-18T07:11:02.327Z,1.82
2019-02-18T07:12:02.275Z,1.82
2019-02-18T07:13:02.221Z,1.90
2019-02-18T07:14:02.231Z,1.88
2019-02-18T07:15:02.214Z,1.89
2019-02-18T07:16:02.210Z,1.83
2019-02-18T07:17:02.216Z,1.88
2019-02-18T07:18:02.170Z,1.98
2019-02-18T07:19:02.166Z,1.95
2019-02-18T07:20:02.143Z,2.09
2019-02-18T07:21:02.162Z,2.01
2019-02-18T07:22:02.169Z,2.07
2019-02-18T07:23:02.111Z,2.04
2019-02-18T07:24:02.101Z,2.08
2019-02-18T07:25:02.092Z,2.09
2019-02-18T07:26:02.104Z,2.14
2019-02-18T07:27:02.097Z,2.09
2019-02-18T07:28:02.100Z,2.09
2019-02-18T07:29:02.056Z,2.12
2019-02-18T07:30:02.038Z,2.18
2019-02-18T07:31:02.028Z,2.14
2019-02-18T07:32:02.020Z,2.22
2019-02-18T07:33:02.063Z,2.22
2019-02-18T07:34:02.023Z,2.18
2019-02-18T07:35:02.029Z,2.23
2019-02-18T07:36:01.986Z,2.33
2019-02-18T07:37:02.026Z,2.23
2019-02-18T07:38:01.981Z,2.40
2019-02-18T07:39:01.969Z,2.41
2019-02-18T07:40:02.466Z,2.41
2019-02-18T07:41:01.925Z,2.41
2019-02-18T07:42:01.910Z,2.41
2019-02-18T07:43:02.031Z,2.50
2019-02-18T07:44:01.892Z,2.53
2019-02-18T07:45:01.909Z,2.50
2019-02-18T07:46:01.870Z,2.56
2019-02-18T07:47:01.870Z,2.61
2019-02-18T07:48:01.894Z,2.59
2019-02-18T07:49:01.894Z,2.62
2019-02-18T07:50:01.856Z,2.66
2019-02-18T07:51:01.828Z,2.73
2019-02-18T07:52:01.812Z,2.74
2019-02-18T07:53:01.797Z,2.76
2019-02-18T07:54:01.851Z,2.76
2019-02-18T07:55:01.785Z,2.81
2019-02-18T07:56:01.771Z,2.71
2019-02-18T07:57:01.764Z,2.84
2019-02-18T07:58:01.780Z,2.87
2019-02-18T07:59:01.789Z,2.87
2019-02-18T08:00:01.818Z,2.92
2019-02-18T08:01:01.749Z,2.89
2019-02-18T08:02:01.779Z,2.95
2019-02-18T08:03:01.698Z,2.86
2019-02-18T08:04:01.680Z,3.01
2019-02-18T08:05:02.459Z,2.98
2019-02-18T08:06:01.686Z,2.94
2019-02-18T08:07:01.654Z,3.04
2019-02-18T08:08:01.662Z,2.98
2019-02-18T08:09:01.636Z,3.02
2019-02-18T08:10:11.439Z,3.08
2019-02-18T08:11:02.605Z,2.95
2019-02-18T08:12:01.610Z,3.10
2019-02-18T08:13:01.621Z,3.13
2019-02-18T08:14:01.579Z,3.07
2019-02-18T08:15:01.596Z,3.10
2019-02-18T08:16:01.568Z,3.26
2019-02-18T08:17:01.543Z,3.22
2019-02-18T08:18:01.541Z,3.26
2019-02-18T08:19:01.568Z,3.31
2019-02-18T08:20:01.582Z,3.30
2019-02-18T08:21:01.554Z,3.31
2019-02-18T08:22:01.526Z,3.37
2019-02-18T08:23:01.489Z,3.37
2019-02-18T08:24:01.481Z,3.41
2019-02-18T08:25:01.460Z,3.49
2019-02-18T08:26:01.517Z,3.59
2019-02-18T08:27:01.459Z,3.56
2019-02-18T08:28:01.432Z,3.60
2019-02-18T08:29:01.475Z,3.71
2019-02-18T08:30:01.411Z,3.77
2019-02-18T08:31:01.456Z,3.71
2019-02-18T08:32:01.444Z,3.80
2019-02-18T08:33:01.386Z,3.90
2019-02-18T08:34:01.365Z,3.95
2019-02-18T08:35:01.358Z,4.00
2019-02-18T08:36:01.352Z,4.00
2019-02-18T08:37:01.361Z,4.11
2019-02-18T08:38:01.336Z,4.11
2019-02-18T08:39:01.443Z,4.18
2019-02-18T08:40:01.306Z,4.17
2019-02-18T08:41:01.385Z,4.29
2019-02-18T08:42:01.323Z,4.34
2019-02-18T08:43:01.273Z,4.38
2019-02-18T08:44:01.262Z,4.34
2019-02-18T08:45:01.279Z,4.36
2019-02-18T08:46:01.301Z,4.39
2019-02-18T08:47:01.258Z,4.38
2019-02-18T08:48:01.233Z,4.49
2019-02-18T08:49:01.204Z,4.49
2019-02-18T08:50:01.194Z,4.59
2019-02-18T08:51:01.211Z,4.64
2019-02-18T08:52:01.174Z,4.74
2019-02-18T08:53:01.191Z,4.75
2019-02-18T08:54:01.164Z,4.72
2019-02-18T08:55:01.163Z,4.77
2019-02-18T08:56:01.133Z,4.90
2019-02-18T08:57:01.124Z,4.94
2019-02-18T08:58:01.137Z,4.90
2019-02-18T08:59:01.136Z,4.93
2019-02-18T09:00:01.183Z,4.97
2019-02-18T09:01:02.839Z,5.04
2019-02-18T09:02:01.072Z,5.08
2019-02-18T09:03:01.120Z,5.14
2019-02-18T09:04:01.086Z,5.19
2019-02-18T09:05:01.036Z,5.17
2019-02-18T09:06:01.036Z,5.22
2019-02-18T09:07:01.023Z,5.27
2019-02-18T09:08:01.018Z,5.35
2019-02-18T09:09:01.194Z,5.45
2019-02-18T09:10:01.026Z,5.49
2019-02-18T09:11:00.977Z,5.56
2019-02-18T09:12:00.972Z,5.59
2019-02-18T09:13:01.123Z,5.63
2019-02-18T09:14:00.991Z,5.67
2019-02-18T09:15:00.970Z,5.70
2019-02-18T09:16:00.925Z,5.75
2019-02-18T09:17:01.112Z,5.84
2019-02-18T09:18:00.907Z,5.83
2019-02-18T09:19:00.934Z,5.88
2019-02-18T09:20:00.891Z,5.95
2019-02-18T09:21:00.937Z,5.93
2019-02-18T09:22:00.871Z,6.06
2019-02-18T09:23:00.862Z,6.08
2019-02-18T09:24:00.869Z,6.16
2019-02-18T09:25:00.858Z,6.21
2019-02-18T09:26:00.837Z,6.17
2019-02-18T09:27:00.834Z,6.30
2019-02-18T09:28:00.816Z,6.39
2019-02-18T09:29:00.865Z,6.35
2019-02-18T09:30:00.854Z,6.43
2019-02-18T09:31:00.767Z,6.50
2019-02-18T09:32:00.756Z,6.54
2019-02-18T09:33:00.800Z,6.55
2019-02-18T09:34:00.733Z,6.63
2019-02-18T09:35:02.049Z,6.64
2019-02-18T09:36:00.728Z,6.79
2019-02-18T09:37:00.736Z,6.97
2019-02-18T09:38:00.692Z,7.01
2019-02-18T09:39:00.680Z,7.01
2019-02-18T09:40:00.694Z,7.08
2019-02-18T09:41:00.718Z,7.07
2019-02-18T09:42:00.671Z,7.08
2019-02-18T09:43:00.640Z,7.23
2019-02-18T09:44:00.636Z,7.21
2019-02-18T09:45:00.637Z,7.29
2019-02-18T09:46:00.626Z,7.41
2019-02-18T09:47:00.596Z,7.41
2019-02-18T09:48:00.607Z,7.52
2019-02-18T09:49:00.581Z,7.54
2019-02-18T09:50:00.653Z,7.79
2019-02-18T09:51:00.601Z,7.76
2019-02-18T09:52:00.540Z,7.69
2019-02-18T09:53:02.428Z,7.71
2019-02-18T09:54:00.521Z,7.71
2019-02-18T09:55:00.516Z,7.76
2019-02-18T09:56:00.589Z,7.84
2019-02-18T09:57:00.600Z,7.82
2019-02-18T09:58:00.521Z,7.86
2019-02-18T09:59:00.464Z,8.02
2019-02-18T10:00:00.459Z,8.02
2019-02-18T10:01:00.478Z,8.07
2019-02-18T10:02:00.444Z,8.07
2019-02-18T10:03:00.518Z,8.14
2019-02-18T10:04:00.414Z,8.12
2019-02-18T10:05:00.497Z,8.21
2019-02-18T10:06:00.454Z,8.21
2019-02-18T10:07:00.410Z,8.28
2019-02-18T10:08:00.384Z,8.39
2019-02-18T10:09:00.357Z,8.39
2019-02-18T10:10:00.451Z,8.49
2019-02-18T10:11:00.334Z,8.54
2019-02-18T10:12:00.383Z,8.63
2019-02-18T10:13:00.341Z,8.60
2019-02-18T10:14:00.306Z,8.61
2019-02-18T10:15:00.346Z,8.67
2019-02-18T10:16:00.281Z,8.60
2019-02-18T10:17:00.337Z,8.73
2019-02-18T10:18:00.266Z,8.79
2019-02-18T10:19:00.255Z,8.94
2019-02-18T10:20:00.958Z,8.86
2019-02-18T10:21:00.298Z,8.97
2019-02-18T10:22:00.223Z,8.96
2019-02-18T10:23:00.252Z,9.08
2019-02-18T10:24:00.283Z,9.10
2019-02-18T10:25:00.217Z,9.19
2019-02-18T10:26:00.191Z,9.37
2019-02-18T10:27:00.165Z,9.41
2019-02-18T10:28:00.157Z,9.53
2019-02-18T10:29:00.197Z,9.67
2019-02-18T10:30:00.257Z,9.63
2019-02-18T10:31:00.141Z,9.65
2019-02-18T10:32:00.112Z,9.70
2019-02-18T10:33:00.101Z,9.73
2019-02-18T10:34:00.151Z,9.75
2019-02-18T10:35:00.170Z,9.89
2019-02-18T10:36:00.167Z,9.85
2019-02-18T10:37:00.058Z,9.96
2019-02-18T10:38:00.046Z,10.10
2019-02-18T10:39:00.102Z,10.18
2019-02-18T10:40:00.238Z,10.16
2019-02-18T10:41:06.933Z,10.35
2019-02-18T10:42:01.009Z,10.39
2019-02-18T10:43:00.004Z,10.47
2019-02-18T10:43:59.985Z,10.49
2019-02-18T10:45:00.382Z,10.44
2019-02-18T10:46:00.039Z,10.51
2019-02-18T10:46:59.951Z,10.66
2019-02-18T10:47:59.938Z,10.75
2019-02-18T10:48:59.933Z,10.72
2019-02-18T10:49:59.948Z,10.66
2019-02-18T10:50:59.941Z,10.68
2019-02-18T10:51:59.951Z,10.72
2019-02-18T10:52:59.885Z,10.78
2019-02-18T10:53:59.882Z,10.78
2019-02-18T10:54:59.863Z,10.78
2019-02-18T10:55:59.880Z,10.94
2019-02-18T10:56:59.863Z,11.01
2019-02-18T10:57:59.861Z,10.99
2019-02-18T10:58:59.831Z,10.95
2019-02-18T10:59:59.822Z,11.02
2019-02-18T11:00:59.845Z,11.08
2019-02-18T11:01:59.790Z,11.19
2019-02-18T11:02:59.798Z,11.36
2019-02-18T11:03:59.798Z,11.31
2019-02-18T11:04:59.760Z,11.42
2019-02-18T11:05:59.795Z,11.46
2019-02-18T11:06:59.735Z,11.53
2019-02-18T11:07:59.740Z,11.57
2019-02-18T11:08:59.734Z,11.60
2019-02-18T11:09:59.717Z,11.63
2019-02-18T11:10:59.699Z,11.63
2019-02-18T11:11:59.719Z,11.69
2019-02-18T11:12:59.680Z,11.70
2019-02-18T11:13:59.665Z,11.78
2019-02-18T11:14:59.656Z,11.81
2019-02-18T11:15:59.652Z,11.90
2019-02-18T11:16:59.691Z,11.93
2019-02-18T11:17:59.625Z,11.97
2019-02-18T11:18:59.620Z,11.98
2019-02-18T11:20:01.502Z,12.12
2019-02-18T11:20:59.654Z,12.11
2019-02-18T11:21:59.615Z,12.18
2019-02-18T11:22:59.644Z,12.16
2019-02-18T11:23:59.568Z,12.13
2019-02-18T11:24:59.545Z,12.15
2019-02-18T11:25:59.532Z,12.22
2019-02-18T11:26:59.622Z,12.26
2019-02-18T11:27:59.552Z,12.30
2019-02-18T11:29:50.850Z,12.29
2019-02-18T11:30:50.840Z,12.41
2019-02-18T11:31:50.827Z,12.41
2019-02-18T11:32:50.819Z,12.44
2019-02-18T11:33:50.850Z,12.56
2019-02-18T11:34:50.796Z,12.59
2019-02-18T11:35:50.786Z,12.67
2019-02-18T11:36:50.775Z,12.63
2019-02-18T11:37:50.781Z,12.63
2019-02-18T11:38:50.776Z,12.73
2019-02-18T11:39:50.785Z,12.77
2019-02-18T11:40:50.733Z,12.81
2019-02-18T11:41:50.721Z,12.80
2019-02-18T11:42:50.737Z,12.77
2019-02-18T11:43:50.736Z,12.81
2019-02-18T11:44:50.689Z,12.77
2019-02-18T11:45:50.680Z,12.79
2019-02-18T11:46:50.664Z,12.70
2019-02-18T11:47:50.685Z,12.80
2019-02-18T11:48:50.658Z,12.80
2019-02-18T11:49:50.658Z,12.79
2019-02-18T11:50:50.646Z,12.79
2019-02-18T11:51:50.628Z,12.81
2019-02-18T11:52:50.599Z,12.77
2019-02-18T11:53:50.590Z,12.85
2019-02-18T11:54:50.620Z,12.84
2019-02-18T11:55:50.567Z,12.71
2019-02-18T11:56:50.556Z,12.87
2019-02-18T11:57:50.551Z,12.89
2019-02-18T11:58:50.555Z,12.94
2019-02-18T11:59:50.550Z,13.03
2019-02-18T12:00:50.534Z,13.09
2019-02-18T12:01:50.504Z,13.14
2019-02-18T12:02:50.512Z,13.16
2019-02-18T12:03:50.479Z,13.29
2019-02-18T12:04:50.502Z,13.22
2019-02-18T12:05:50.524Z,13.27
2019-02-18T12:06:50.455Z,13.35
2019-02-18T12:07:50.447Z,13.39
2019-02-18T12:08:50.430Z,13.46
2019-02-18T12:09:50.457Z,13.41
2019-02-18T12:10:50.467Z,13.44
2019-02-18T12:11:50.393Z,13.44
2019-02-18T12:12:50.383Z,13.46
2019-02-18T12:13:50.373Z,13.47
2019-02-18T12:14:50.398Z,13.55
2019-02-18T12:15:50.366Z,13.53
2019-02-18T12:16:50.350Z,13.55
2019-02-18T12:17:50.330Z,13.55
2019-02-18T12:18:50.318Z,13.63
2019-02-18T12:19:50.306Z,13.72
2019-02-18T12:20:50.321Z,13.71
2019-02-18T12:21:50.293Z,13.63
2019-02-18T12:22:50.289Z,13.76
2019-02-18T12:23:50.303Z,13.75
2019-02-18T12:24:50.279Z,13.83
2019-02-18T12:25:50.286Z,13.83
2019-02-18T12:26:50.234Z,13.86
2019-02-18T12:27:50.233Z,13.96
2019-02-18T12:28:50.230Z,13.94
2019-02-18T12:29:50.198Z,13.96
2019-02-18T12:30:50.226Z,13.91
2019-02-18T12:31:50.234Z,14.05
2019-02-18T12:32:50.165Z,14.06
2019-02-18T12:33:51.991Z,14.01
2019-02-18T12:34:50.150Z,14.12
2019-02-18T12:35:50.171Z,14.08
2019-02-18T12:36:50.129Z,14.05
2019-02-18T12:37:55.256Z,14.13
2019-02-18T12:38:51.097Z,14.08
2019-02-18T12:39:50.092Z,13.99
2019-02-18T12:40:50.125Z,14.16
2019-02-18T12:41:50.070Z,14.23
2019-02-18T12:42:50.062Z,14.19
2019-02-18T12:43:50.046Z,14.30
2019-02-18T12:44:50.098Z,14.34
2019-02-18T12:45:50.051Z,14.42
2019-02-18T12:46:50.030Z,14.38
2019-02-18T12:47:50.001Z,14.46
2019-02-18T12:48:50.012Z,14.56
2019-02-18T12:49:51.021Z,14.59
2019-02-18T12:50:49.995Z,14.57
2019-02-18T12:51:49.960Z,14.60
2019-02-18T12:52:49.969Z,14.72
2019-02-18T12:53:49.942Z,14.74
2019-02-18T12:54:50.009Z,14.74
2019-02-18T12:55:49.960Z,14.69
2019-02-18T12:56:49.918Z,14.66
2019-02-18T12:57:49.890Z,14.72
2019-02-18T12:58:54.585Z,14.64
2019-02-18T12:59:50.931Z,14.67
2019-02-18T13:00:49.884Z,14.57
2019-02-18T13:01:49.849Z,14.60
2019-02-18T13:02:49.836Z,14.60
2019-02-18T13:03:49.882Z,14.53
2019-02-18T13:04:49.816Z,14.64
2019-02-18T13:05:49.840Z,14.63
2019-02-18T13:06:49.795Z,14.78
2019-02-18T13:07:49.783Z,15.05
2019-02-18T13:08:49.786Z,15.38
2019-02-18T13:09:49.788Z,15.95
2019-02-18T13:10:49.793Z,16.55
2019-02-18T13:11:58.694Z,16.63
2019-02-18T13:12:50.737Z,17.30
2019-02-18T13:13:49.725Z,18.11